Matopos, Zimbabwe

2:12 PM CAT on October 02, 2014 (GMT +0200)
Bulawayo | Change Station
CLOSE
Current Station
Airport
Location: Bulawayo Woodvale,
Elevation: 4350 ft
Nearby Weather Stations

Elev 4350 ft 20.02 °S, 28.62 °E | Updated 12 minutes ago

Clear
Clear
90 °F
Feels Like 90 °F
N
13
Wind Variable Wind from East
Gusts 25 mph

Today
High -- | Low -- °F
--% Chance of Precip.
Yesterday
High -- | Low -- °F
Precip. -- in
5:46 AM 6:04 PM
First Quarter, 58% visible
Pressure 30.06 in
Visibility -9999.0 miles
Clouds
Dew Point 18 °F
Humidity 7%
Rainfall 0.00 in
Snow Depth Not available.
UV Not available.
Pollen Not available.
Air Quality Not available.
Flu Activity Not available.
METAR FVBU 011200Z 09011G22KT CAVOK 32/M08 Q1018 NOSIG

More Conditions Fewer Conditions

Pressure 30.06 in
Visibility -9999.0 miles
Clouds
Dew Point 18 °F
Humidity 7%
Rainfall 0.00 in
Snow Depth Not available.
UV Not available.
Pollen Not available.
Air Quality Not available.
Flu Activity Not available.
METAR FVBU 011200Z 09011G22KT CAVOK 32/M08 Q1018 NOSIG

More Conditions Fewer Conditions

10-Day Weather Forecast

Almanac

Astronomy

Oct. 02, 2014 Rise Set
Actual Time 5:46 AM CAT 6:04 PM CAT
Civil Twilight 5:24 AM CAT 6:26 PM CAT
Nautical Twilight 4:58 AM CAT 6:52 PM CAT
Astronomical Twilight 4:32 AM CAT 7:18 PM CAT
Moon 12:07 PM CAT 12:34 AM CAT
Length of Visible Light 13h 02m
Length of Day
12h 17m
Tomorrow will be 1m 10s longer.
First Quarter, 58% of the Moon is Illuminated
Today
First Quarter
Oct 8
Full
Oct 15
Last Quarter
Oct 23
New
Oct 30
First Quarter

Yesterday's Extremes

Country Highs Country Lows

Community

WunderPhotos

Upload Photos

1,758,223 photos uploaded!

WunderBlogs® & News

Nearby

Snow Depth

Not available.

Earthquake Activity

City Distance Mag. Time & Date
No recent earthquake activity has been reported nearby.
Minimum magnitude displayed is 2.5.

Coastal Water Temperatures

Place Temperature
No Stations Reporting

Nearby Weather Stations